Time;durP1;ratioP1;P1;durP2;ratioP2;P2;SDS_P1;SDS_P2;PMS_P1;PMS_P2;Temp;Humidity;BMP_temperature;BMP_pressure;BME280_temperature;BME280_humidity;BME280_pressure;Samples;Min_cycle;Max_cycle;Signal;HPM_P1;HPM_P2
2023/12/08 00:00:54;;;;;;;3.87;3.15;;;;;;;-0.14;94.66;95003.78;4332383;32;20396;-59
2023/12/08 00:03:20;;;;;;;2.97;2.77;;;;;;;-0.13;94.90;95015.78;4342202;32;20193;-59
2023/12/08 00:05:46;;;;;;;1.30;1.30;;;;;;;0.04;93.58;95004.59;4331150;32;20193;-59
2023/12/08 00:08:14;;;;;;;3.60;3.30;;;;;;;0.07;93.96;94998.91;4339429;32;20189;-60
2023/12/08 00:10:41;;;;;;;1.87;1.77;;;;;;;-0.14;93.95;94995.16;4339430;32;20260;-59
2023/12/08 00:13:06;;;;;;;2.78;2.58;;;;;;;0.06;93.66;94997.31;4315775;32;20205;-59
2023/12/08 00:15:33;;;;;;;2.23;2.10;;;;;;;-0.02;93.28;94991.50;4326726;32;20224;-59
2023/12/08 00:18:00;;;;;;;1.80;1.77;;;;;;;0.02;93.71;94989.19;4330689;32;20281;-59
2023/12/08 00:20:26;;;;;;;2.22;2.03;;;;;;;-0.22;94.20;94983.31;4323425;32;20213;-59
2023/12/08 00:22:53;;;;;;;5.25;3.05;;;;;;;-0.20;94.17;94983.84;4352613;32;20198;-59
2023/12/08 00:25:22;;;;;;;3.22;2.92;;;;;;;-0.06;93.21;94982.56;4322230;32;20228;-58
2023/12/08 00:27:49;;;;;;;1.42;1.42;;;;;;;-0.19;93.82;94972.41;4315503;32;20199;-59
2023/12/08 00:30:14;;;;;;;1.23;1.23;;;;;;;-0.10;93.87;94967.59;4327548;32;20256;-58
2023/12/08 00:32:41;;;;;;;7.00;2.30;;;;;;;-0.27;94.31;94966.78;4335580;32;20206;-58
2023/12/08 00:35:09;;;;;;;1.37;1.37;;;;;;;-0.16;94.15;94971.94;4324780;32;20239;-59
2023/12/08 00:37:35;;;;;;;1.90;1.90;;;;;;;-0.13;93.72;94973.28;4289587;32;20217;-59
2023/12/08 00:40:02;;;;;;;2.08;1.98;;;;;;;-0.17;94.13;94972.97;4337724;32;20365;-59
2023/12/08 00:42:27;;;;;;;1.90;1.80;;;;;;;-0.25;94.83;94968.16;4326497;32;20240;-59
2023/12/08 00:44:54;;;;;;;1.33;0.90;;;;;;;-0.14;93.98;94961.28;4343221;32;20209;-59
2023/12/08 00:47:19;;;;;;;1.55;1.55;;;;;;;-0.02;93.91;94951.59;4315364;32;20190;-59
2023/12/08 00:49:46;;;;;;;1.73;1.33;;;;;;;0.07;92.92;94949.38;4341341;32;20208;-59
2023/12/08 00:52:12;;;;;;;1.20;1.20;;;;;;;0.07;92.89;94937.12;4347096;32;20193;-60
2023/12/08 00:54:38;;;;;;;1.00;1.00;;;;;;;-0.05;93.50;94929.41;4361221;32;20193;-58
2023/12/08 00:57:05;;;;;;;1.23;1.23;;;;;;;0.18;92.25;94932.87;4347151;32;20197;-59
2023/12/08 00:59:32;;;;;;;5.87;2.03;;;;;;;0.12;92.52;94931.19;4319539;32;20193;-59
2023/12/08 01:02:00;;;;;;;1.00;1.00;;;;;;;0.07;92.09;94923.28;4345115;32;20287;-59
2023/12/08 01:04:26;;;;;;;1.35;1.25;;;;;;;0.17;91.65;94915.66;4324151;32;20240;-59
2023/12/08 01:06:53;;;;;;;1.10;1.10;;;;;;;0.04;91.95;94914.12;4354714;32;20197;-59
2023/12/08 01:09:22;;;;;;;1.08;1.08;;;;;;;-0.09;92.07;94917.84;4310397;32;20194;-59
2023/12/08 01:11:48;;;;;;;3.25;0.88;;;;;;;-0.17;92.62;94927.88;4347636;32;20252;-59
2023/12/08 01:14:13;;;;;;;2.43;2.33;;;;;;;0.15;91.82;94928.91;4361535;32;20193;-58
2023/12/08 01:16:43;;;;;;;0.70;0.70;;;;;;;0.27;90.83;94923.59;4327710;32;20212;-60
2023/12/08 01:19:10;;;;;;;1.77;1.60;;;;;;;-0.07;91.34;94915.00;4341678;32;20211;-59
2023/12/08 01:21:41;;;;;;;1.87;1.60;;;;;;;-0.09;92.06;94917.06;4341875;32;20203;-58
2023/12/08 01:24:06;;;;;;;0.88;0.88;;;;;;;-0.13;92.22;94913.34;4345260;32;20193;-58
2023/12/08 01:26:33;;;;;;;1.10;1.10;;;;;;;-0.18;92.24;94908.84;4340519;32;20204;-59
2023/12/08 01:29:00;;;;;;;1.37;1.37;;;;;;;-0.10;92.29;94905.84;4331221;32;20203;-59
2023/12/08 01:31:27;;;;;;;1.33;1.23;;;;;;;-0.05;91.76;94905.94;4310892;32;20201;-59
2023/12/08 01:33:54;;;;;;;1.00;1.00;;;;;;;-0.08;91.72;94905.59;4338285;32;20185;-59
2023/12/08 01:36:20;;;;;;;2.20;2.10;;;;;;;-0.06;91.14;94904.34;4334321;32;20240;-59
2023/12/08 01:38:47;;;;;;;1.25;1.17;;;;;;;-0.05;91.07;94908.53;4347107;32;20186;-59
2023/12/08 01:41:14;;;;;;;1.50;1.50;;;;;;;-0.05;91.13;94913.75;4330582;32;20215;-59
2023/12/08 01:43:43;;;;;;;2.12;1.40;;;;;;;0.11;90.78;94911.38;4345831;32;20253;-58
2023/12/08 01:46:19;;;;;;;1.77;1.70;;;;;;;0.22;90.38;94898.22;4354082;32;20212;-59
2023/12/08 01:48:45;;;;;;;1.62;1.62;;;;;;;0.15;89.93;94889.00;4329787;32;20197;-59
2023/12/08 01:51:12;;;;;;;1.77;1.67;;;;;;;0.20;89.30;94895.09;4343179;32;20206;-58
2023/12/08 01:54:01;;;;;;;0.90;0.90;;;;;;;0.10;89.77;94894.16;4285084;32;20197;-58
2023/12/08 01:56:28;;;;;;;1.23;1.23;;;;;;;0.07;89.84;94884.97;4295042;32;20249;-58
2023/12/08 01:58:53;;;;;;;0.98;0.98;;;;;;;0.36;89.01;94884.88;4346316;32;20204;-58
2023/12/08 02:01:20;;;;;;;0.77;0.77;;;;;;;0.40;89.12;94885.97;4367190;32;20253;-59
2023/12/08 02:03:50;;;;;;;1.30;1.30;;;;;;;0.34;88.62;94885.13;4341113;32;20219;-59
2023/12/08 02:06:17;;;;;;;1.58;1.52;;;;;;;0.42;88.33;94878.69;4329553;32;20233;-59
2023/12/08 02:08:44;;;;;;;1.73;1.62;;;;;;;0.41;88.48;94879.72;4328587;32;20220;-59
2023/12/08 02:11:11;;;;;;;1.10;1.10;;;;;;;0.38;88.58;94869.78;4342873;32;20189;-58
2023/12/08 02:13:38;;;;;;;1.02;1.02;;;;;;;0.09;89.95;94876.91;4333916;32;20193;-59
2023/12/08 02:16:17;;;;;;;1.50;1.40;;;;;;;0.39;89.29;94877.38;4317692;32;20185;-58
2023/12/08 02:18:43;;;;;;;0.77;0.77;;;;;;;0.07;90.34;94878.97;4294821;32;20257;-59
2023/12/08 02:21:08;;;;;;;1.17;1.17;;;;;;;0.19;89.89;94885.69;4352215;32;20220;-59
2023/12/08 02:23:35;;;;;;;2.03;1.93;;;;;;;0.40;89.43;94881.56;4334311;32;20942;-59
2023/12/08 02:26:10;;;;;;;1.50;1.40;;;;;;;0.25;89.59;94881.31;4341045;32;20322;-58
2023/12/08 02:28:36;;;;;;;1.87;1.30;;;;;;;0.38;89.46;94864.56;4346685;32;20275;-58
2023/12/08 02:31:06;;;;;;;1.13;1.13;;;;;;;0.53;88.92;94857.72;4339480;32;20301;-59
2023/12/08 02:33:36;;;;;;;1.15;1.15;;;;;;;0.62;88.22;94847.66;4348612;32;20185;-58
2023/12/08 02:36:08;;;;;;;1.10;1.10;;;;;;;0.32;89.25;94833.19;4316977;32;20297;-59
2023/12/08 02:38:48;;;;;;;1.33;1.33;;;;;;;0.39;89.00;94834.84;4340061;32;20244;-59
2023/12/08 02:41:13;;;;;;;1.90;1.80;;;;;;;0.15;90.12;94835.03;4321977;32;20205;-58
2023/12/08 02:43:39;;;;;;;2.28;1.83;;;;;;;0.29;90.20;94825.03;4322951;32;20245;-59
2023/12/08 02:46:06;;;;;;;2.17;2.07;;;;;;;0.43;89.03;94823.66;4346079;32;20223;-58
2023/12/08 02:48:34;;;;;;;1.67;1.30;;;;;;;0.00;90.98;94832.25;4341809;32;20312;-59
2023/12/08 02:51:04;;;;;;;1.20;1.20;;;;;;;0.08;91.04;94817.97;4337970;32;20252;-59
2023/12/08 02:53:31;;;;;;;1.12;1.10;;;;;;;-0.14;91.22;94826.53;4349978;32;20189;-58
2023/12/08 02:55:58;;;;;;;1.05;1.05;;;;;;;-0.03;91.35;94833.50;4311309;32;20220;-59
2023/12/08 02:58:25;;;;;;;1.85;1.75;;;;;;;0.09;91.15;94822.97;4316107;32;20205;-59
2023/12/08 03:00:51;;;;;;;1.37;1.35;;;;;;;0.25;90.65;94814.31;4345206;32;20193;-59
2023/12/08 03:03:17;;;;;;;1.30;1.27;;;;;;;0.34;90.08;94825.13;4302961;32;20245;-58
2023/12/08 03:05:45;;;;;;;1.00;1.00;;;;;;;0.23;89.63;94836.44;4328987;32;20273;-59
2023/12/08 03:08:11;;;;;;;1.17;1.17;;;;;;;0.27;89.53;94832.31;4330446;32;20269;-58
2023/12/08 03:10:36;;;;;;;0.80;0.80;;;;;;;0.35;88.96;94831.91;4355730;32;20197;-59
2023/12/08 03:13:01;;;;;;;0.97;0.90;;;;;;;0.18;89.23;94828.56;4342866;32;20268;-58
2023/12/08 03:15:28;;;;;;;1.07;1.07;;;;;;;0.07;89.92;94824.22;4322993;32;20186;-58
2023/12/08 03:17:54;;;;;;;0.85;0.85;;;;;;;0.16;90.78;94825.41;4358741;32;20189;-58
2023/12/08 03:20:22;;;;;;;0.65;0.65;;;;;;;0.30;89.90;94831.84;4336213;32;20201;-59
2023/12/08 03:22:49;;;;;;;1.05;0.98;;;;;;;0.35;89.60;94824.09;4336049;32;20253;-59
2023/12/08 03:25:16;;;;;;;1.62;1.55;;;;;;;0.41;89.18;94828.34;4333633;32;20217;-59
2023/12/08 03:27:41;;;;;;;1.20;1.20;;;;;;;0.40;89.17;94821.56;4323451;32;20228;-59
2023/12/08 03:30:08;;;;;;;1.23;1.23;;;;;;;0.40;88.67;94824.16;4337792;32;20282;-59
2023/12/08 03:32:35;;;;;;;0.95;0.95;;;;;;;0.41;88.65;94836.19;4347350;32;20208;-58
2023/12/08 03:35:02;;;;;;;1.40;1.33;;;;;;;0.27;88.92;94853.19;4333917;32;20197;-58
2023/12/08 03:37:27;;;;;;;0.65;0.65;;;;;;;0.53;87.72;94839.44;4332564;32;20297;-59
2023/12/08 03:39:55;;;;;;;1.03;1.03;;;;;;;0.47;87.70;94837.00;4353974;32;20211;-59
2023/12/08 03:42:24;;;;;;;0.68;0.68;;;;;;;0.52;88.12;94824.03;4350072;32;20235;-58
2023/12/08 03:44:51;;;;;;;2.00;1.30;;;;;;;0.60;87.13;94819.19;4311000;32;20201;-59
2023/12/08 03:47:18;;;;;;;1.48;1.12;;;;;;;0.68;86.88;94821.34;4322757;32;20290;-58
2023/12/08 03:49:44;;;;;;;0.60;0.60;;;;;;;0.60;86.39;94821.00;4324776;32;20216;-59
2023/12/08 03:52:11;;;;;;;2.00;1.27;;;;;;;0.58;87.37;94826.47;4323582;32;20509;-59
2023/12/08 03:54:36;;;;;;;1.98;1.87;;;;;;;0.62;86.81;94819.72;4303590;32;20233;-59
2023/12/08 03:57:03;;;;;;;4.00;2.20;;;;;;;0.60;87.32;94815.78;4271516;32;20239;-58
2023/12/08 03:59:29;;;;;;;0.60;0.60;;;;;;;0.78;86.47;94799.03;4335191;32;20281;-59
2023/12/08 04:01:56;;;;;;;0.93;0.93;;;;;;;0.27;88.50;94806.25;4339282;32;20198;-59
2023/12/08 04:04:24;;;;;;;3.87;1.30;;;;;;;0.30;88.85;94813.59;4322030;32;20214;-59
2023/12/08 04:06:50;;;;;;;2.95;1.23;;;;;;;0.47;88.26;94801.28;4319545;32;20232;-59
2023/12/08 04:09:17;;;;;;;0.73;0.73;;;;;;;0.56;87.73;94793.81;4333736;32;20193;-60
2023/12/08 04:11:43;;;;;;;1.58;1.48;;;;;;;0.34;87.91;94783.38;4329491;32;20206;-59
2023/12/08 04:14:09;;;;;;;1.02;1.02;;;;;;;0.26;88.64;94791.62;4332269;32;20217;-59
2023/12/08 04:16:35;;;;;;;1.10;1.10;;;;;;;0.42;88.30;94782.94;4337769;32;20243;-59
2023/12/08 04:19:02;;;;;;;1.02;1.02;;;;;;;0.43;88.39;94783.72;4331800;32;20312;-58
2023/12/08 04:21:29;;;;;;;1.90;1.73;;;;;;;0.35;89.12;94790.19;4339390;32;20224;-59
2023/12/08 04:23:56;;;;;;;0.70;0.70;;;;;;;0.41;89.28;94783.22;4296811;32;20200;-59
2023/12/08 04:26:25;;;;;;;0.90;0.90;;;;;;;0.21;89.47;94778.50;4338275;32;20193;-59
2023/12/08 04:28:56;;;;;;;1.65;1.55;;;;;;;0.10;90.00;94759.34;4336847;32;20243;-59
2023/12/08 04:31:23;;;;;;;1.12;1.12;;;;;;;0.16;90.16;94755.78;4351354;32;20259;-58
2023/12/08 04:33:51;;;;;;;0.85;0.85;;;;;;;-0.07;91.20;94748.97;4333861;32;20200;-59
2023/12/08 04:36:17;;;;;;;1.17;1.17;;;;;;;-0.10;90.98;94739.03;4327251;32;20205;-59
2023/12/08 04:38:44;;;;;;;0.93;0.93;;;;;;;-0.08;91.55;94736.97;4330209;32;20216;-58
2023/12/08 04:41:12;;;;;;;0.93;0.93;;;;;;;-0.19;90.86;94719.63;4333177;32;20193;-59
2023/12/08 04:43:48;;;;;;;1.08;1.08;;;;;;;-0.54;92.36;94726.94;4346735;32;20261;-59
2023/12/08 04:46:13;;;;;;;0.68;0.68;;;;;;;-0.47;92.84;94727.59;4338807;32;20200;-59
2023/12/08 04:48:39;;;;;;;0.83;0.83;;;;;;;-0.31;92.31;94752.81;4350586;32;20293;-60
2023/12/08 04:51:04;;;;;;;1.13;0.97;;;;;;;-0.01;90.43;94752.44;4326881;32;20194;-59
2023/12/08 04:53:31;;;;;;;1.03;1.03;;;;;;;-0.09;90.47;94748.44;4310581;32;20268;-58
2023/12/08 04:55:59;;;;;;;0.90;0.90;;;;;;;-0.04;90.64;94732.06;4342493;32;20257;-59
2023/12/08 04:58:26;;;;;;;6.53;1.10;;;;;;;-0.03;90.41;94738.88;4337642;32;20209;-59
2023/12/08 05:00:54;;;;;;;0.90;0.90;;;;;;;0.04;90.34;94739.47;4324409;32;20202;-58
2023/12/08 05:03:23;;;;;;;2.33;1.05;;;;;;;-0.25;91.24;94740.66;4329083;32;20193;-59
2023/12/08 05:05:49;;;;;;;4.10;1.75;;;;;;;0.07;90.61;94735.59;4319130;32;20256;-59
2023/12/08 05:08:16;;;;;;;1.75;1.65;;;;;;;0.20;89.77;94743.06;4332467;32;20224;-58
2023/12/08 05:10:41;;;;;;;1.65;1.55;;;;;;;0.40;88.37;94740.69;4338889;32;20194;-60
2023/12/08 05:13:11;;;;;;;1.03;0.97;;;;;;;0.47;87.40;94756.13;4332369;32;20212;-58
2023/12/08 05:15:40;;;;;;;2.05;1.25;;;;;;;0.47;87.69;94764.75;4326229;32;20244;-59
2023/12/08 05:18:07;;;;;;;1.17;1.15;;;;;;;0.49;87.31;94777.56;4338991;32;20193;-59
2023/12/08 05:20:32;;;;;;;0.95;0.95;;;;;;;0.46;86.41;94767.59;4344673;32;20291;-59
2023/12/08 05:22:59;;;;;;;0.90;0.90;;;;;;;0.26;87.93;94774.16;4317856;32;20260;-58
2023/12/08 05:25:26;;;;;;;1.55;1.45;;;;;;;0.55;87.38;94795.66;4314980;32;20185;-59
2023/12/08 05:27:51;;;;;;;1.95;1.85;;;;;;;0.43;88.30;94794.97;4336801;32;20236;-58
2023/12/08 05:30:17;;;;;;;1.20;1.20;;;;;;;0.27;89.25;94803.63;4336717;32;20190;-58
2023/12/08 05:32:45;;;;;;;0.70;0.70;;;;;;;0.17;90.22;94799.09;4332036;32;20197;-60
2023/12/08 05:35:11;;;;;;;2.05;1.27;;;;;;;0.19;90.70;94806.69;4338220;32;20241;-58
2023/12/08 05:37:37;;;;;;;1.08;1.00;;;;;;;0.09;91.28;94820.34;4351124;32;20226;-59
2023/12/08 05:40:04;;;;;;;0.53;0.53;;;;;;;0.44;89.99;94827.84;4356291;32;20189;-59
2023/12/08 05:42:30;;;;;;;1.17;1.17;;;;;;;0.34;90.41;94828.53;4339212;32;20273;-59
2023/12/08 05:44:57;;;;;;;0.57;0.57;;;;;;;0.16;91.66;94836.62;4327609;32;20227;-59
2023/12/08 05:47:25;;;;;;;1.90;1.80;;;;;;;0.28;91.83;94842.50;4340562;32;20232;-59
2023/12/08 05:49:53;;;;;;;1.03;1.03;;;;;;;0.11;92.65;94838.38;4324562;32;20339;-59
2023/12/08 05:52:19;;;;;;;1.23;1.20;;;;;;;0.03;93.48;94836.16;4327616;32;20366;-59
2023/12/08 05:54:47;;;;;;;0.77;0.43;;;;;;;0.27;92.61;94837.53;4335337;32;20269;-58
2023/12/08 05:57:14;;;;;;;2.05;1.12;;;;;;;0.31;92.39;94829.00;4352040;32;20201;-59
2023/12/08 05:59:40;;;;;;;0.77;0.77;;;;;;;0.30;92.01;94827.41;4336304;32;20197;-60
2023/12/08 06:02:07;;;;;;;1.80;1.70;;;;;;;0.53;90.82;94831.63;4334684;32;20214;-58
2023/12/08 06:04:34;;;;;;;1.45;1.45;;;;;;;0.53;91.42;94815.97;4330295;32;20220;-58
2023/12/08 06:07:03;;;;;;;0.47;0.47;;;;;;;0.57;90.52;94821.50;4321919;32;20292;-58
2023/12/08 06:09:30;;;;;;;0.77;0.77;;;;;;;0.78;90.04;94825.13;4332559;32;20376;-58
2023/12/08 06:11:57;;;;;;;0.93;0.93;;;;;;;0.81;89.17;94827.25;4348532;32;20201;-59
2023/12/08 06:14:22;;;;;;;2.00;1.90;;;;;;;0.87;88.59;94823.66;4346998;32;20193;-58
2023/12/08 06:16:47;;;;;;;1.17;1.17;;;;;;;0.89;88.04;94832.03;4317098;32;20212;-59
2023/12/08 06:19:16;;;;;;;8.77;2.23;;;;;;;1.05;87.72;94857.25;4328300;32;20253;-58
2023/12/08 06:21:44;;;;;;;1.57;1.47;;;;;;;1.07;87.42;94868.25;4298735;32;20251;-58
2023/12/08 06:24:10;;;;;;;0.90;0.90;;;;;;;0.57;89.43;94871.06;4338852;32;20356;-58
2023/12/08 06:26:46;;;;;;;1.43;1.33;;;;;;;0.32;91.27;94881.94;4335532;32;20282;-59
2023/12/08 06:29:12;;;;;;;1.33;1.27;;;;;;;0.03;92.85;94880.47;4333194;32;20255;-60
2023/12/08 06:31:38;;;;;;;1.20;1.20;;;;;;;0.30;92.33;94894.44;4339016;32;20186;-59
2023/12/08 06:34:05;;;;;;;1.13;1.13;;;;;;;0.62;90.86;94911.03;4363215;32;20197;-58
2023/12/08 06:36:31;;;;;;;0.90;0.90;;;;;;;0.58;90.45;94920.41;4337165;32;20465;-58
2023/12/08 06:38:56;;;;;;;1.03;1.03;;;;;;;0.57;90.89;94921.44;4315281;32;20198;-59
2023/12/08 06:41:23;;;;;;;1.27;1.27;;;;;;;0.36;91.53;94924.78;4345362;32;20215;-58
2023/12/08 06:43:48;;;;;;;0.82;0.82;;;;;;;0.31;92.75;94917.69;4349129;32;20260;-59
2023/12/08 06:46:14;;;;;;;1.73;1.63;;;;;;;0.06;93.43;94914.69;4335718;32;20211;-59
2023/12/08 06:48:39;;;;;;;0.60;0.60;;;;;;;-0.02;95.13;94923.72;4312645;32;20260;-59
2023/12/08 06:51:06;;;;;;;1.47;1.37;;;;;;;0.19;94.89;94929.22;4335238;32;20193;-59
2023/12/08 06:53:34;;;;;;;1.23;1.20;;;;;;;0.17;93.86;94931.28;4324195;32;20196;-59
2023/12/08 06:56:00;;;;;;;1.80;1.70;;;;;;;0.31;94.07;94927.31;4307648;32;20333;-59
2023/12/08 06:58:27;;;;;;;1.67;1.67;;;;;;;0.24;93.59;94916.25;4344148;32;20201;-59
2023/12/08 07:00:55;;;;;;;0.80;0.80;;;;;;;0.13;94.26;94919.75;4347977;32;20211;-59
2023/12/08 07:03:21;;;;;;;1.55;1.45;;;;;;;-0.08;95.10;94903.00;4316602;32;20272;-59
2023/12/08 07:05:48;;;;;;;0.87;0.87;;;;;;;-0.11;94.92;94893.84;4326569;32;20233;-59
2023/12/08 07:08:17;;;;;;;1.12;1.10;;;;;;;0.01;95.26;94880.72;4342271;32;20220;-59
2023/12/08 07:10:44;;;;;;;0.75;0.75;;;;;;;0.30;94.77;94889.22;4350971;32;20217;-59
2023/12/08 07:13:10;;;;;;;1.00;1.00;;;;;;;0.64;93.02;94903.78;4343874;32;20199;-59
2023/12/08 07:15:42;;;;;;;1.00;1.00;;;;;;;0.20;94.19;94905.53;4351802;32;20177;-59
2023/12/08 07:18:08;;;;;;;2.05;1.95;;;;;;;0.45;94.73;94912.13;4343867;32;20208;-58
2023/12/08 07:20:34;;;;;;;1.30;1.30;;;;;;;0.10;94.80;94915.00;4312333;32;20190;-59
2023/12/08 07:23:01;;;;;;;1.15;1.15;;;;;;;0.35;94.34;94920.59;4326576;32;20291;-60
2023/12/08 07:25:28;;;;;;;0.53;0.53;;;;;;;0.71;92.66;94921.06;4337091;32;20216;-59
2023/12/08 07:27:56;;;;;;;9.43;2.50;;;;;;;7.24;100.00;94878.63;4313218;32;20301;-59
2023/12/08 07:30:21;;;;;;;3.60;3.30;;;;;;;8.46;100.00;94897.22;4326943;32;20303;-59
2023/12/08 07:32:48;;;;;;;1.83;1.73;;;;;;;9.67;82.13;94896.78;4327521;32;20286;-59
2023/12/08 07:35:14;;;;;;;3.73;3.00;;;;;;;9.84;70.28;94893.50;4292788;32;20214;-59
2023/12/08 07:37:40;;;;;;;2.37;2.17;;;;;;;10.53;57.42;94896.69;4350987;32;20357;-59
2023/12/08 07:40:09;;;;;;;2.63;2.43;;;;;;;10.75;54.65;94888.69;4341747;32;20194;-60
2023/12/08 07:42:36;;;;;;;2.83;2.60;;;;;;;11.18;52.48;94896.06;4329105;32;20281;-60
2023/12/08 07:45:06;;;;;;;2.30;2.10;;;;;;;11.05;50.68;94900.38;4334200;32;20421;-60
2023/12/08 07:47:33;;;;;;;2.60;2.43;;;;;;;11.12;50.49;94894.63;4332811;32;20195;-62
2023/12/08 07:50:00;;;;;;;2.93;2.73;;;;;;;9.35;47.54;94886.34;4339688;32;20267;-62
2023/12/08 07:52:26;;;;;;;2.33;2.23;;;;;;;6.19;55.75;94912.91;4339729;32;20290;-62
2023/12/08 07:54:52;;;;;;;2.93;2.73;;;;;;;5.31;58.37;94907.59;4337636;32;20353;-62
2023/12/08 07:57:22;;;;;;;2.53;2.33;;;;;;;4.22;63.33;94923.09;4335743;32;20204;-62
2023/12/08 07:59:51;;;;;;;1.60;1.60;;;;;;;3.79;65.87;94919.91;4292233;32;20324;-62
2023/12/08 08:02:18;;;;;;;3.37;3.17;;;;;;;3.76;67.10;94914.41;4305215;32;20295;-61
2023/12/08 08:04:46;;;;;;;2.97;2.77;;;;;;;3.28;69.28;94903.28;4329974;32;20288;-62
2023/12/08 08:07:12;;;;;;;3.00;2.80;;;;;;;3.25;69.27;94897.78;4339871;32;20371;-61
2023/12/08 08:09:41;;;;;;;2.87;2.67;;;;;;;3.21;71.07;94887.00;4327250;32;20361;-62
2023/12/08 08:12:09;;;;;;;3.43;2.63;;;;;;;3.01;71.22;94882.50;4338935;32;20206;-61
2023/12/08 08:14:35;;;;;;;3.87;3.47;;;;;;;3.04;70.67;94887.22;4304054;32;20285;-61
2023/12/08 08:17:02;;;;;;;8.30;2.93;;;;;;;2.88;71.04;94890.03;4323426;32;20361;-61
2023/12/08 08:19:31;;;;;;;4.40;2.67;;;;;;;3.03;71.20;94882.25;4315034;32;20336;-61
2023/12/08 08:21:59;;;;;;;3.10;2.90;;;;;;;3.25;70.94;94882.06;4301495;32;20284;-61
2023/12/08 08:24:27;;;;;;;3.17;2.97;;;;;;;3.36;69.53;94891.50;4341775;32;20298;-61
2023/12/08 08:26:54;;;;;;;1.57;1.57;;;;;;;3.48;69.58;94886.84;4338721;32;20398;-61
2023/12/08 08:29:22;;;;;;;1.73;1.70;;;;;;;3.55;69.28;94882.09;4332115;32;20365;-61
2023/12/08 08:31:47;;;;;;;2.07;1.97;;;;;;;3.71;68.09;94886.34;4333725;32;20277;-61
2023/12/08 08:34:14;;;;;;;1.90;1.80;;;;;;;3.55;68.30;94887.34;4290810;32;20413;-62
2023/12/08 08:36:40;;;;;;;1.37;1.37;;;;;;;3.61;68.39;94891.56;4340550;32;20251;-62
2023/12/08 08:39:07;;;;;;;2.03;1.93;;;;;;;3.60;69.07;94890.00;4311963;32;20298;-61
2023/12/08 08:41:33;;;;;;;1.97;1.73;;;;;;;3.75;68.46;94892.63;4328930;32;20224;-60
2023/12/08 08:44:00;;;;;;;2.17;2.07;;;;;;;3.96;67.55;94890.81;4266340;32;20387;-61
2023/12/08 08:46:28;;;;;;;2.90;2.70;;;;;;;3.74;68.68;94898.16;4295654;32;20217;-60
2023/12/08 08:48:57;;;;;;;2.10;2.00;;;;;;;3.71;69.68;94899.47;4328992;32;20301;-61
2023/12/08 08:51:24;;;;;;;2.40;2.23;;;;;;;3.68;70.04;94896.56;4306946;32;20360;-61
2023/12/08 08:53:51;;;;;;;2.50;2.37;;;;;;;3.95;68.83;94897.09;4335825;32;20329;-61
2023/12/08 08:56:22;;;;;;;3.17;2.67;;;;;;;3.63;69.48;94899.19;4327096;32;20336;-60
2023/12/08 08:58:50;;;;;;;3.67;2.23;;;;;;;3.62;69.62;94894.97;4304420;32;20292;-61
2023/12/08 09:01:18;;;;;;;2.40;2.27;;;;;;;3.84;69.23;94894.75;4319374;32;20290;-61
2023/12/08 09:03:45;;;;;;;2.37;2.27;;;;;;;3.79;70.38;94903.38;4321172;32;20298;-61
2023/12/08 09:06:11;;;;;;;2.43;2.33;;;;;;;3.93;69.30;94899.22;4329331;32;20299;-61
2023/12/08 09:08:36;;;;;;;2.07;1.97;;;;;;;4.01;69.10;94898.69;4339747;32;20307;-62
2023/12/08 09:11:03;;;;;;;2.77;2.67;;;;;;;4.03;69.93;94898.44;4290502;32;20354;-61
2023/12/08 09:13:31;;;;;;;2.03;1.93;;;;;;;4.25;68.96;94906.81;4326638;32;20203;-60
2023/12/08 09:15:58;;;;;;;3.03;2.27;;;;;;;4.58;68.07;94902.84;4338013;32;20277;-60
2023/12/08 09:18:27;;;;;;;2.57;2.37;;;;;;;4.60;67.90;94898.09;4320593;32;20278;-60
2023/12/08 09:20:53;;;;;;;3.37;2.20;;;;;;;4.84;66.77;94893.84;4324593;32;20308;-61
2023/12/08 09:23:19;;;;;;;1.57;1.10;;;;;;;4.74;66.90;94898.34;4324629;32;20288;-60
2023/12/08 09:25:44;;;;;;;2.83;1.50;;;;;;;6.37;100.00;94877.97;4330124;32;20294;-62
2023/12/08 09:28:11;;;;;;;2.27;2.13;;;;;;;10.73;94.77;94884.78;4322295;32;20193;-62
2023/12/08 09:30:37;;;;;;;1.60;1.50;;;;;;;12.34;67.63;94884.66;4311350;32;20194;-62
2023/12/08 09:33:09;;;;;;;4.43;2.40;;;;;;;13.51;52.07;94885.28;4297815;32;20193;-61
2023/12/08 09:35:35;;;;;;;1.20;1.20;;;;;;;14.05;49.30;94878.94;4333578;32;20212;-61
2023/12/08 09:38:03;;;;;;;2.17;1.97;;;;;;;14.56;46.09;94884.19;4319005;32;20209;-61
2023/12/08 09:40:32;;;;;;;2.13;1.60;;;;;;;15.12;45.76;94882.66;4319813;32;20261;-61
2023/12/08 09:43:07;;;;;;;2.07;1.90;;;;;;;15.43;44.39;94879.44;4329774;32;20197;-61
2023/12/08 09:45:33;;;;;;;1.30;1.30;;;;;;;15.40;43.45;94874.75;4289655;32;20220;-61
2023/12/08 09:48:08;;;;;;;1.50;1.50;;;;;;;15.55;41.96;94876.00;4335432;32;20232;-61
2023/12/08 09:50:34;;;;;;;1.40;1.40;;;;;;;15.58;41.07;94875.34;4321154;32;20302;-61
2023/12/08 09:53:04;;;;;;;1.63;1.63;;;;;;;15.56;41.54;94870.34;4302718;32;20308;-60
2023/12/08 09:55:34;;;;;;;2.00;1.90;;;;;;;12.50;39.66;94884.16;4317079;32;20318;-60
2023/12/08 09:58:02;;;;;;;1.67;1.57;;;;;;;11.00;42.89;94880.09;4320870;32;20269;-60
2023/12/08 10:00:56;;;;;;;1.47;1.47;;;;;;;9.19;47.41;94896.41;4330597;32;20197;-60
2023/12/08 10:03:26;;;;;;;1.70;1.60;;;;;;;7.58;51.20;94890.84;4320972;32;20231;-61
2023/12/08 10:05:57;;;;;;;2.80;1.43;;;;;;;7.24;53.00;94894.47;4310478;32;20220;-61
2023/12/08 10:08:24;;;;;;;1.20;1.20;;;;;;;6.00;56.51;94893.56;4338803;32;20248;-61
2023/12/08 10:10:53;;;;;;;0.80;0.80;;;;;;;5.33;59.99;94889.72;4292448;32;20245;-61
2023/12/08 10:13:26;;;;;;;2.03;1.83;;;;;;;5.52;60.20;94878.31;4324133;32;20278;-61
2023/12/08 10:16:12;;;;;;;1.30;1.30;;;;;;;5.49;61.66;94878.84;4323520;32;20274;-60
2023/12/08 10:18:39;;;;;;;4.33;1.60;;;;;;;5.26;62.60;94884.75;4318334;32;20302;-60
2023/12/08 10:21:23;;;;;;;1.47;1.37;;;;;;;5.16;63.22;94884.81;4269389;33;20369;-60
2023/12/08 10:24:02;;;;;;;1.10;1.10;;;;;;;5.20;62.88;94885.06;4280929;32;20287;-60
2023/12/08 10:26:45;;;;;;;1.13;1.13;;;;;;;5.28;63.08;94887.09;4307611;32;20330;-60
2023/12/08 10:29:13;;;;;;;1.80;1.70;;;;;;;5.24;63.65;94876.34;4324860;32;20388;-60
2023/12/08 10:31:41;;;;;;;1.53;1.43;;;;;;;5.43;62.61;94869.41;4326406;32;20289;-60
2023/12/08 10:34:15;;;;;;;1.73;1.63;;;;;;;5.46;62.85;94870.72;4319569;32;20282;-60
2023/12/08 10:36:41;;;;;;;2.07;1.97;;;;;;;5.52;62.93;94867.00;4313391;32;20283;-60
2023/12/08 10:39:09;;;;;;;1.67;1.63;;;;;;;5.58;62.88;94867.75;4336804;32;20330;-61
2023/12/08 10:41:35;;;;;;;2.33;2.23;;;;;;;5.47;63.79;94865.19;4301590;32;20236;-60
2023/12/08 10:44:08;;;;;;;1.60;1.60;;;;;;;5.60;62.87;94866.44;4336964;32;20290;-60
2023/12/08 10:46:46;;;;;;;2.70;2.50;;;;;;;5.49;63.68;94876.22;4307429;32;20304;-61
2023/12/08 10:49:27;;;;;;;5.07;2.80;;;;;;;5.46;63.62;94876.75;4333978;32;20312;-60
2023/12/08 10:51:55;;;;;;;2.50;2.40;;;;;;;5.15;65.96;94870.87;4339913;32;20267;-61
2023/12/08 10:54:22;;;;;;;2.60;2.50;;;;;;;5.33;65.26;94874.72;4321621;32;20416;-61
2023/12/08 10:56:50;;;;;;;1.90;1.80;;;;;;;5.21;66.75;94873.47;4337761;32;20282;-61
2023/12/08 10:59:25;;;;;;;3.10;2.90;;;;;;;5.06;67.43;94872.47;4328810;32;20317;-61
2023/12/08 11:01:55;;;;;;;6.97;4.17;;;;;;;4.52;69.80;94880.28;4311601;32;20340;-61
2023/12/08 11:04:21;;;;;;;4.87;3.37;;;;;;;4.48;70.90;94876.59;4336539;32;20336;-60
2023/12/08 11:07:15;;;;;;;2.70;2.53;;;;;;;4.62;71.09;94871.56;4312585;32;20290;-61
2023/12/08 11:09:41;;;;;;;2.17;2.07;;;;;;;4.39;73.19;94871.09;4327570;32;20376;-60
2023/12/08 11:12:18;;;;;;;4.90;3.53;;;;;;;5.23;71.71;94872.13;4329855;32;20276;-60
2023/12/08 11:15:04;;;;;;;4.00;3.47;;;;;;;4.78;70.58;94868.62;4319639;32;20197;-60
2023/12/08 11:17:43;;;;;;;4.13;3.83;;;;;;;4.82;70.85;94871.50;4307810;32;20313;-61
2023/12/08 11:20:10;;;;;;;5.70;4.23;;;;;;;4.34;72.80;94875.59;4286250;33;20294;-60
2023/12/08 11:22:37;;;;;;;2.77;2.57;;;;;;;4.59;72.98;94880.78;4335745;32;20290;-61
2023/12/08 11:25:15;;;;;;;8.63;3.60;;;;;;;4.40;72.89;94882.38;4346159;32;20329;-60
2023/12/08 11:28:06;;;;;;;4.07;3.77;;;;;;;4.46;72.12;94886.59;4321461;32;20316;-61
2023/12/08 11:30:59;;;;;;;2.87;2.67;;;;;;;4.80;71.51;94887.53;4310758;32;20342;-60
2023/12/08 11:34:11;;;;;;;2.40;2.30;;;;;;;4.50;72.91;94879.75;4334013;32;20372;-60
2023/12/08 11:36:49;;;;;;;2.20;2.10;;;;;;;4.58;72.15;94889.69;4321561;32;20283;-60
2023/12/08 11:39:36;;;;;;;1.90;1.80;;;;;;;4.71;72.08;94891.78;4309504;32;20294;-60
2023/12/08 11:42:09;;;;;;;2.60;2.43;;;;;;;4.37;73.71;94882.91;4316709;32;20295;-61
2023/12/08 11:44:38;;;;;;;2.47;2.37;;;;;;;4.63;71.87;94887.06;4300404;32;20336;-61